createdAt,value
2022-10-21T00:00:08.956Z,8.32
2022-10-21T00:01:11.604Z,6.47
2022-10-21T00:02:13.644Z,5.60
2022-10-21T00:03:15.447Z,5.32
2022-10-21T00:04:17.493Z,4.68
2022-10-21T00:05:19.362Z,3.58
2022-10-21T00:06:21.399Z,5.97
2022-10-21T00:07:23.186Z,5.15
2022-10-21T00:08:25.423Z,3.60
2022-10-21T00:09:27.268Z,2.55
2022-10-21T00:10:29.114Z,3.05
2022-10-21T00:11:30.915Z,4.32
2022-10-21T00:12:33.920Z,3.20
2022-10-21T00:13:38.708Z,2.53
2022-10-21T00:14:40.499Z,2.15
2022-10-21T00:15:42.435Z,3.05
2022-10-21T00:16:44.456Z,3.60
2022-10-21T00:17:46.308Z,3.30
2022-10-21T00:18:48.733Z,1.70
2022-10-21T00:19:50.645Z,2.58
2022-10-21T00:20:52.423Z,1.95
2022-10-21T00:21:54.703Z,3.17
2022-10-21T00:22:56.547Z,2.92
2022-10-21T00:23:58.342Z,4.43
2022-10-21T00:25:00.420Z,5.07
2022-10-21T00:26:03.244Z,4.72
2022-10-21T00:27:05.105Z,5.35
2022-10-21T00:28:06.864Z,6.30
2022-10-21T00:29:09.095Z,5.72
2022-10-21T00:30:12.731Z,3.70
2022-10-21T00:31:16.486Z,6.80
2022-10-21T00:32:18.571Z,4.25
2022-10-21T00:33:20.845Z,3.53
2022-10-21T00:34:26.985Z,3.83
2022-10-21T00:35:34.189Z,4.68
2022-10-21T00:36:36.103Z,3.83
2022-10-21T00:37:38.066Z,6.53
2022-10-21T00:38:40.638Z,4.63
2022-10-21T00:39:42.440Z,5.97
2022-10-21T00:40:44.456Z,3.70
2022-10-21T00:41:46.533Z,3.80
2022-10-21T00:42:48.627Z,4.28
2022-10-21T00:44:02.965Z,3.40
2022-10-21T00:45:07.629Z,5.53
2022-10-21T00:46:11.471Z,4.47
2022-10-21T00:47:22.303Z,2.45
2022-10-21T00:48:45.144Z,2.22
2022-10-21T00:50:01.199Z,2.50
2022-10-21T00:51:09.251Z,4.47
2022-10-21T00:52:21.726Z,4.43
2022-10-21T00:53:24.758Z,5.80
2022-10-21T00:54:27.382Z,9.30
2022-10-21T00:55:34.986Z,5.30
2022-10-21T00:56:38.291Z,9.15
2022-10-21T00:57:40.870Z,5.53
2022-10-21T00:58:43.271Z,3.53
2022-10-21T00:59:48.833Z,5.03
2022-10-21T01:00:52.258Z,7.43
2022-10-21T01:01:54.624Z,3.10
2022-10-21T01:02:56.495Z,3.58
2022-10-21T01:03:58.368Z,1.85
2022-10-21T01:05:02.620Z,2.42
2022-10-21T01:06:09.345Z,2.92
2022-10-21T01:07:12.286Z,4.47
2022-10-21T01:08:14.335Z,6.35
2022-10-21T01:09:17.587Z,5.10
2022-10-21T01:10:19.588Z,3.80
2022-10-21T01:11:23.405Z,4.80
2022-10-21T01:12:49.365Z,7.78
2022-10-21T01:14:09.758Z,4.00
2022-10-21T01:15:29.777Z,4.05
2022-10-21T01:16:48.248Z,5.88
2022-10-21T01:17:55.209Z,3.50
2022-10-21T01:19:20.366Z,4.10
2022-10-21T01:20:47.392Z,4.10
2022-10-21T01:22:11.887Z,4.53
2022-10-21T01:23:14.091Z,6.10
2022-10-21T01:24:43.297Z,3.95
2022-10-21T01:26:03.766Z,4.18
2022-10-21T01:27:20.841Z,3.97
2022-10-21T01:28:29.173Z,5.15
2022-10-21T01:30:00.369Z,4.38
2022-10-21T01:31:06.201Z,4.32
2022-10-21T01:33:25.414Z,7.75
2022-10-21T01:34:48.869Z,5.47
2022-10-21T01:36:03.635Z,5.20
2022-10-21T01:37:17.393Z,8.68
2022-10-21T01:38:42.476Z,7.18
2022-10-21T01:39:55.510Z,8.88
2022-10-21T01:41:10.621Z,8.48
2022-10-21T01:42:42.205Z,6.60
2022-10-21T01:44:08.495Z,10.13
2022-10-21T01:45:38.356Z,4.78
2022-10-21T01:47:02.401Z,4.82
2022-10-21T01:48:21.392Z,3.85
2022-10-21T01:50:08.652Z,4.18
2022-10-21T01:51:15.042Z,4.70
2022-10-21T01:52:23.641Z,4.40
2022-10-21T01:53:33.615Z,5.30
2022-10-21T01:54:45.326Z,6.20
2022-10-21T01:55:49.454Z,7.13
2022-10-21T01:56:53.272Z,6.38
2022-10-21T01:58:05.457Z,4.38
2022-10-21T01:59:11.261Z,3.88
2022-10-21T02:00:16.283Z,4.45
2022-10-21T02:01:20.087Z,2.63
2022-10-21T02:02:23.691Z,2.63
2022-10-21T02:03:31.190Z,3.25
2022-10-21T02:04:36.171Z,5.00
2022-10-21T02:05:38.559Z,5.25
2022-10-21T02:06:40.618Z,6.78
2022-10-21T02:07:43.136Z,4.07
2022-10-21T02:08:46.311Z,2.60
2022-10-21T02:09:48.337Z,2.58
2022-10-21T02:10:55.260Z,2.40
2022-10-21T02:12:00.205Z,4.13
2022-10-21T02:13:06.060Z,3.30
2022-10-21T02:14:36.779Z,1.98
2022-10-21T02:15:41.183Z,2.67
2022-10-21T02:16:44.403Z,4.55
2022-10-21T02:17:55.783Z,5.25
2022-10-21T02:18:58.907Z,3.78
2022-10-21T02:20:04.150Z,5.22
2022-10-21T02:21:10.552Z,3.92
2022-10-21T02:22:18.151Z,5.15
2022-10-21T02:23:26.761Z,3.42
2022-10-21T02:24:51.639Z,4.60
2022-10-21T02:25:53.885Z,3.42
2022-10-21T02:26:55.930Z,2.58
2022-10-21T02:27:58.241Z,3.17
2022-10-21T02:29:01.013Z,2.70
2022-10-21T02:30:03.263Z,5.63
2022-10-21T02:31:24.385Z,4.57
2022-10-21T02:32:35.603Z,4.07
2022-10-21T02:34:02.452Z,2.97
2022-10-21T02:35:36.477Z,3.47
2022-10-21T02:36:57.733Z,5.60
2022-10-21T02:38:20.127Z,6.28
2022-10-21T02:40:05.136Z,5.18
2022-10-21T02:41:14.321Z,3.88
2022-10-21T02:42:23.426Z,2.53
2022-10-21T02:43:41.596Z,4.80
2022-10-21T02:44:43.358Z,3.65
2022-10-21T02:45:47.274Z,3.13
2022-10-21T02:46:49.440Z,2.35
2022-10-21T02:47:51.723Z,2.83
2022-10-21T02:48:53.868Z,4.20
2022-10-21T02:49:55.915Z,3.03
2022-10-21T02:50:57.745Z,3.60
2022-10-21T02:51:59.954Z,2.15
2022-10-21T02:53:02.199Z,3.50
2022-10-21T02:54:04.050Z,2.58
2022-10-21T02:55:06.544Z,3.60
2022-10-21T02:56:09.512Z,4.28
2022-10-21T02:57:11.557Z,2.03
2022-10-21T02:58:13.382Z,3.95
2022-10-21T02:59:15.198Z,4.72
2022-10-21T03:00:17.324Z,4.32
2022-10-21T03:01:19.418Z,3.05
2022-10-21T03:02:21.527Z,5.47
2022-10-21T03:03:23.678Z,7.90
2022-10-21T03:04:25.670Z,8.48
2022-10-21T03:05:27.871Z,6.38
2022-10-21T03:06:29.739Z,4.38
2022-10-21T03:07:31.770Z,9.25
2022-10-21T03:08:33.911Z,7.68
2022-10-21T03:09:35.774Z,4.53
2022-10-21T03:10:37.589Z,5.93
2022-10-21T03:11:39.408Z,4.57
2022-10-21T03:12:41.183Z,5.18
2022-10-21T03:13:42.957Z,3.30
2022-10-21T03:14:44.781Z,3.30
2022-10-21T03:15:46.818Z,2.60
2022-10-21T03:16:48.844Z,4.05
2022-10-21T03:17:50.645Z,4.35
2022-10-21T03:18:52.539Z,2.42
2022-10-21T03:19:54.780Z,4.22
2022-10-21T03:20:56.579Z,2.15
2022-10-21T03:21:58.422Z,3.20
2022-10-21T03:23:00.215Z,3.40
2022-10-21T03:24:02.568Z,3.00
2022-10-21T03:25:05.035Z,4.25
2022-10-21T03:26:07.049Z,3.10
2022-10-21T03:27:09.080Z,2.88
2022-10-21T03:28:10.859Z,4.95
2022-10-21T03:29:12.971Z,5.10
2022-10-21T03:30:14.966Z,3.17
2022-10-21T03:31:17.063Z,2.35
2022-10-21T03:32:19.515Z,2.45
2022-10-21T03:33:21.337Z,9.73
2022-10-21T03:34:23.167Z,5.28
2022-10-21T03:35:24.945Z,7.13
2022-10-21T03:36:26.970Z,7.20
2022-10-21T03:37:28.999Z,3.78
2022-10-21T03:38:30.973Z,3.88
2022-10-21T03:39:32.781Z,3.05
2022-10-21T03:40:34.564Z,3.58
2022-10-21T03:41:36.574Z,6.07
2022-10-21T03:42:38.711Z,4.05
2022-10-21T03:43:40.644Z,4.03
2022-10-21T03:44:42.948Z,2.72
2022-10-21T03:45:44.763Z,5.05
2022-10-21T03:46:46.734Z,6.03
2022-10-21T03:47:48.894Z,3.75
2022-10-21T03:48:50.683Z,5.10
2022-10-21T03:49:52.538Z,5.22
2022-10-21T03:50:56.473Z,5.65
2022-10-21T03:51:58.269Z,3.97
2022-10-21T03:53:02.390Z,3.72
2022-10-21T03:54:08.445Z,5.05
2022-10-21T03:55:10.524Z,3.78
2022-10-21T03:56:13.242Z,3.67
2022-10-21T03:57:15.675Z,5.05
2022-10-21T03:58:17.940Z,7.20
2022-10-21T03:59:19.720Z,4.95
2022-10-21T04:00:22.302Z,6.80
2022-10-21T04:01:24.161Z,6.93
2022-10-21T04:02:26.029Z,7.75
2022-10-21T04:03:28.471Z,5.25
2022-10-21T04:04:30.315Z,4.40
2022-10-21T04:05:32.110Z,6.75
2022-10-21T04:06:34.025Z,4.30
2022-10-21T04:07:36.125Z,6.47
2022-10-21T04:08:38.021Z,6.85
2022-10-21T04:09:40.046Z,4.97
2022-10-21T04:10:42.060Z,4.65
2022-10-21T04:11:44.022Z,8.15
2022-10-21T04:12:46.027Z,7.35
2022-10-21T04:13:48.179Z,5.68
2022-10-21T04:14:50.452Z,8.55
2022-10-21T04:16:01.317Z,6.68
2022-10-21T04:17:07.465Z,6.43
2022-10-21T04:18:09.871Z,7.07
2022-10-21T04:19:20.963Z,13.18
2022-10-21T04:20:22.778Z,7.55
2022-10-21T04:21:24.697Z,5.68
2022-10-21T04:22:26.497Z,13.05
2022-10-21T04:23:28.471Z,7.45
2022-10-21T04:24:31.044Z,6.30
2022-10-21T04:25:33.102Z,6.10
2022-10-21T04:26:34.906Z,5.95
2022-10-21T04:27:37.321Z,7.57
2022-10-21T04:28:39.402Z,9.88
2022-10-21T04:29:41.541Z,6.80
2022-10-21T04:30:43.468Z,7.25
2022-10-21T04:31:45.578Z,9.80
2022-10-21T04:32:47.423Z,10.07
2022-10-21T04:33:50.159Z,6.90
2022-10-21T04:34:52.417Z,7.22
2022-10-21T04:35:55.809Z,4.53
2022-10-21T04:37:01.090Z,6.38
2022-10-21T04:38:06.452Z,4.78
2022-10-21T04:39:08.302Z,5.15
2022-10-21T04:40:10.912Z,6.75
2022-10-21T04:41:13.043Z,8.13
2022-10-21T04:42:15.134Z,5.38
2022-10-21T04:43:17.016Z,4.68
2022-10-21T04:44:18.998Z,5.32
2022-10-21T04:45:21.079Z,5.68
2022-10-21T04:46:22.937Z,7.40
2022-10-21T04:47:24.982Z,8.18
2022-10-21T04:48:26.966Z,6.05
2022-10-21T04:49:28.969Z,5.80
2022-10-21T04:50:31.066Z,4.40
2022-10-21T04:51:33.074Z,5.25
2022-10-21T04:52:35.552Z,6.32
2022-10-21T04:53:38.179Z,7.50
2022-10-21T04:54:39.986Z,5.82
2022-10-21T04:55:41.977Z,7.03
2022-10-21T04:56:44.104Z,9.90
2022-10-21T04:57:46.637Z,11.98
2022-10-21T04:58:48.645Z,7.55
2022-10-21T04:59:50.469Z,7.53
2022-10-21T05:00:53.159Z,9.30
2022-10-21T05:01:55.488Z,8.05
2022-10-21T05:02:59.202Z,6.55
2022-10-21T05:04:01.011Z,4.50
2022-10-21T05:05:02.991Z,4.97
2022-10-21T05:06:04.940Z,8.77
2022-10-21T05:07:06.815Z,10.45
2022-10-21T05:08:11.559Z,4.38
2022-10-21T05:09:13.832Z,5.93
2022-10-21T05:10:16.244Z,11.63
2022-10-21T05:11:18.341Z,7.43
2022-10-21T05:12:20.352Z,6.82
2022-10-21T05:13:22.103Z,11.70
2022-10-21T05:14:24.134Z,9.15
2022-10-21T05:15:26.716Z,9.30
2022-10-21T05:16:28.550Z,6.68
2022-10-21T05:17:30.563Z,12.73
2022-10-21T05:18:32.725Z,6.82
2022-10-21T05:19:34.720Z,9.43
2022-10-21T05:20:36.733Z,8.00
2022-10-21T05:21:39.094Z,8.95
2022-10-21T05:22:41.617Z,7.90
2022-10-21T05:23:43.587Z,9.02
2022-10-21T05:24:45.567Z,8.60
2022-10-21T05:25:48.696Z,7.70
2022-10-21T05:26:51.822Z,7.30
2022-10-21T05:27:54.099Z,10.57
2022-10-21T05:28:56.119Z,9.07
2022-10-21T05:29:58.887Z,10.63
2022-10-21T05:31:00.880Z,12.60
2022-10-21T05:32:03.007Z,8.23
2022-10-21T05:33:05.098Z,6.53
2022-10-21T05:34:07.170Z,8.18
2022-10-21T05:35:09.406Z,6.07
2022-10-21T05:36:11.422Z,8.05
2022-10-21T05:37:13.483Z,7.97
2022-10-21T05:38:15.447Z,9.15
2022-10-21T05:39:17.448Z,7.63
2022-10-21T05:40:19.234Z,6.35
2022-10-21T05:41:21.249Z,7.22
2022-10-21T05:42:23.505Z,8.55
2022-10-21T05:43:26.072Z,6.28
2022-10-21T05:44:28.157Z,8.50
2022-10-21T05:45:30.496Z,12.02
2022-10-21T05:46:32.921Z,11.45
2022-10-21T05:47:35.172Z,8.43
2022-10-21T05:48:37.997Z,11.57
2022-10-21T05:49:40.342Z,14.15
2022-10-21T05:50:42.403Z,5.10
2022-10-21T05:51:45.748Z,7.30
2022-10-21T05:52:47.821Z,17.00
2022-10-21T05:53:50.007Z,9.15
2022-10-21T05:54:51.803Z,9.32
2022-10-21T05:56:01.753Z,10.02
2022-10-21T05:57:03.816Z,9.52
2022-10-21T05:58:06.372Z,10.93
2022-10-21T05:59:10.297Z,13.52
2022-10-21T06:00:13.175Z,9.90
2022-10-21T06:01:15.287Z,8.98
2022-10-21T06:02:17.650Z,8.55
2022-10-21T06:03:19.629Z,10.25
2022-10-21T06:04:21.746Z,11.43
2022-10-21T06:05:23.841Z,10.20
2022-10-21T06:06:25.901Z,12.48
2022-10-21T06:07:28.118Z,11.32
2022-10-21T06:08:31.837Z,8.18
2022-10-21T06:09:34.875Z,8.23
2022-10-21T06:10:36.916Z,9.10
2022-10-21T06:11:38.940Z,9.60
2022-10-21T06:12:40.989Z,8.05
2022-10-21T06:13:43.412Z,10.02
2022-10-21T06:14:45.396Z,8.52
2022-10-21T06:15:48.904Z,8.98
2022-10-21T06:16:53.268Z,5.88
2022-10-21T06:17:55.609Z,7.15
2022-10-21T06:18:57.659Z,6.13
2022-10-21T06:19:59.699Z,6.45
2022-10-21T06:21:01.872Z,12.85
2022-10-21T06:22:03.695Z,11.82
2022-10-21T06:23:06.066Z,9.52
2022-10-21T06:24:08.112Z,13.20
2022-10-21T06:25:10.221Z,6.90
2022-10-21T06:26:14.391Z,11.75
2022-10-21T06:27:16.231Z,10.50
2022-10-21T06:28:18.306Z,16.48
2022-10-21T06:29:20.573Z,10.07
2022-10-21T06:30:23.552Z,12.38
2022-10-21T06:31:25.563Z,8.27
2022-10-21T06:32:27.579Z,8.40
2022-10-21T06:33:29.992Z,9.10
2022-10-21T06:34:32.277Z,11.95
2022-10-21T06:35:34.070Z,11.15
2022-10-21T06:36:38.387Z,17.05
2022-10-21T06:37:42.640Z,13.15
2022-10-21T06:38:44.776Z,14.63
2022-10-21T06:39:46.791Z,9.95
2022-10-21T06:40:49.083Z,19.60
2022-10-21T06:41:51.198Z,11.00
2022-10-21T06:42:53.489Z,13.68
2022-10-21T06:43:55.340Z,7.95
2022-10-21T06:45:00.094Z,12.38
2022-10-21T06:46:04.740Z,9.73
2022-10-21T06:47:08.560Z,9.10
2022-10-21T06:48:10.833Z,13.43
2022-10-21T06:49:13.160Z,10.50
2022-10-21T06:50:15.629Z,9.73
2022-10-21T06:51:20.707Z,6.65
2022-10-21T06:52:22.805Z,9.48
2022-10-21T06:53:24.885Z,7.03
2022-10-21T06:54:27.313Z,10.93
2022-10-21T06:55:29.683Z,8.43
2022-10-21T06:56:31.964Z,12.95
2022-10-21T06:57:34.323Z,19.27
2022-10-21T06:58:38.858Z,29.25
2022-10-21T06:59:40.874Z,15.18
2022-10-21T07:00:42.960Z,15.15
2022-10-21T07:02:01.148Z,13.30
2022-10-21T07:03:03.568Z,14.50
2022-10-21T07:04:07.094Z,13.52
2022-10-21T07:05:09.496Z,10.70
2022-10-21T07:06:11.854Z,9.15
2022-10-21T07:07:13.832Z,6.55
2022-10-21T07:08:18.029Z,6.88
2022-10-21T07:09:22.096Z,11.65
2022-10-21T07:10:24.165Z,7.95
2022-10-21T07:11:27.744Z,8.25
2022-10-21T07:12:31.278Z,6.70
2022-10-21T07:13:35.567Z,11.68
2022-10-21T07:14:38.229Z,17.92
2022-10-21T07:15:40.268Z,17.88
2022-10-21T07:16:42.478Z,12.73
2022-10-21T07:17:44.244Z,10.80
2022-10-21T07:18:46.345Z,8.23
2022-10-21T07:19:48.489Z,8.15
2022-10-21T07:20:50.540Z,8.75
2022-10-21T07:21:52.331Z,6.35
2022-10-21T07:22:54.340Z,6.25
2022-10-21T07:23:59.145Z,8.50
2022-10-21T07:26:05.246Z,13.52
2022-10-21T07:27:07.686Z,6.18
2022-10-21T07:28:09.801Z,16.17
2022-10-21T07:29:12.144Z,11.27
2022-10-21T07:30:14.224Z,8.10
2022-10-21T07:31:20.223Z,6.47
2022-10-21T07:32:22.259Z,7.45
2022-10-21T07:33:24.077Z,6.95
2022-10-21T07:34:26.912Z,6.03
2022-10-21T07:35:28.960Z,9.57
2022-10-21T07:36:34.732Z,10.70
2022-10-21T07:37:37.060Z,4.80
2022-10-21T07:38:40.518Z,5.80
2022-10-21T07:39:42.714Z,6.88
2022-10-21T07:40:44.931Z,7.32
2022-10-21T07:41:54.042Z,6.43
2022-10-21T07:42:57.567Z,7.03
2022-10-21T07:44:00.001Z,5.95
2022-10-21T07:45:03.662Z,10.02
2022-10-21T07:46:07.001Z,7.75
2022-10-21T07:47:09.272Z,6.07
2022-10-21T07:48:11.392Z,6.18
2022-10-21T07:49:14.602Z,5.82
2022-10-21T07:50:17.052Z,12.30
2022-10-21T07:51:23.666Z,5.07
2022-10-21T07:52:27.804Z,9.27
2022-10-21T07:53:30.067Z,10.15
2022-10-21T07:54:32.018Z,9.13
2022-10-21T07:55:34.051Z,5.78
2022-10-21T07:56:42.428Z,4.25
2022-10-21T07:57:44.812Z,7.97
2022-10-21T07:58:47.405Z,7.25
2022-10-21T07:59:49.360Z,12.25
2022-10-21T08:00:51.224Z,12.07
2022-10-21T08:01:54.370Z,7.55
2022-10-21T08:02:56.757Z,9.32
2022-10-21T08:03:59.066Z,5.50
2022-10-21T08:05:01.044Z,6.90
2022-10-21T08:06:04.493Z,6.68
2022-10-21T08:07:09.214Z,6.53
2022-10-21T08:08:13.765Z,4.30
2022-10-21T08:09:17.208Z,5.15
2022-10-21T08:10:19.394Z,6.40
2022-10-21T08:11:26.512Z,8.70
2022-10-21T08:12:28.851Z,8.93
2022-10-21T08:13:32.180Z,6.20
2022-10-21T08:14:34.980Z,10.90
2022-10-21T08:15:36.779Z,10.95
2022-10-21T08:16:40.319Z,6.40
2022-10-21T08:17:45.077Z,6.57
2022-10-21T08:18:47.436Z,6.28
2022-10-21T08:19:49.640Z,10.60
2022-10-21T08:20:52.534Z,7.53
2022-10-21T08:21:54.797Z,10.13
2022-10-21T08:22:56.902Z,7.35
2022-10-21T08:24:01.211Z,5.95
2022-10-21T08:25:03.687Z,4.90
2022-10-21T08:26:08.017Z,7.18
2022-10-21T08:27:10.064Z,9.30
2022-10-21T08:28:12.103Z,7.15
2022-10-21T08:29:14.128Z,10.73
2022-10-21T08:30:16.251Z,10.65
2022-10-21T08:31:20.870Z,16.88
2022-10-21T08:32:23.052Z,10.35
2022-10-21T08:33:25.210Z,8.52
2022-10-21T08:34:27.238Z,9.98
2022-10-21T08:35:29.732Z,4.82
2022-10-21T08:36:31.779Z,11.60
2022-10-21T08:37:33.700Z,10.73
2022-10-21T08:38:36.679Z,7.10
2022-10-21T08:39:38.800Z,11.57
2022-10-21T08:40:46.338Z,11.82
2022-10-21T08:42:12.460Z,7.57
2022-10-21T08:43:18.404Z,11.60
2022-10-21T08:44:23.223Z,7.97
2022-10-21T08:45:46.833Z,8.00
2022-10-21T08:47:15.133Z,6.28
2022-10-21T08:48:22.362Z,13.95
2022-10-21T08:49:39.255Z,8.05
2022-10-21T08:50:45.361Z,8.68
2022-10-21T08:51:51.952Z,10.48
2022-10-21T08:53:06.463Z,5.85
2022-10-21T08:54:24.630Z,6.43
2022-10-21T08:55:43.172Z,12.63
2022-10-21T08:56:48.049Z,6.43
2022-10-21T08:57:51.815Z,9.93
2022-10-21T08:58:54.929Z,8.25
2022-10-21T08:59:57.100Z,11.32
2022-10-21T09:01:04.177Z,12.55
2022-10-21T09:02:26.237Z,10.50
2022-10-21T09:03:42.739Z,7.72
2022-10-21T09:04:55.559Z,14.30
2022-10-21T09:06:18.231Z,7.70
2022-10-21T09:07:46.774Z,6.95
2022-10-21T09:09:26.836Z,9.90
2022-10-21T09:10:47.836Z,11.88
2022-10-21T09:12:08.670Z,11.23
2022-10-21T09:13:18.495Z,8.30
2022-10-21T09:14:40.917Z,7.75
2022-10-21T09:16:21.418Z,7.35
2022-10-21T09:17:44.285Z,7.85
2022-10-21T09:19:10.612Z,10.13
2022-10-21T09:20:21.086Z,9.65
2022-10-21T09:22:16.469Z,10.27
2022-10-21T09:23:38.306Z,12.77
2022-10-21T09:24:53.584Z,12.50
2022-10-21T09:26:03.290Z,12.30
2022-10-21T09:27:06.092Z,16.77
2022-10-21T09:28:13.999Z,10.70
2022-10-21T09:29:16.096Z,15.65
2022-10-21T09:30:24.480Z,16.55
2022-10-21T09:31:28.919Z,9.10
2022-10-21T09:32:35.043Z,11.82
2022-10-21T09:33:37.188Z,11.55
2022-10-21T09:35:10.793Z,8.93
2022-10-21T09:36:23.899Z,11.85
2022-10-21T09:37:45.748Z,8.75
2022-10-21T09:39:18.714Z,7.03
2022-10-21T09:40:24.072Z,10.88
2022-10-21T09:41:43.383Z,9.48
2022-10-21T09:42:48.125Z,10.20
2022-10-21T09:43:51.254Z,12.25
2022-10-21T09:44:53.706Z,8.50
2022-10-21T09:45:57.547Z,10.25
2022-10-21T09:46:59.608Z,11.63
2022-10-21T09:48:06.201Z,11.20
2022-10-21T09:50:05.726Z,10.15
2022-10-21T09:51:11.056Z,11.43
2022-10-21T09:52:15.072Z,10.25
2022-10-21T09:53:28.346Z,8.00
2022-10-21T09:54:35.361Z,8.73
2022-10-21T09:55:40.402Z,11.82
2022-10-21T09:57:09.399Z,10.23
2022-10-21T09:58:25.745Z,11.30
2022-10-21T09:59:32.918Z,13.25
2022-10-21T10:00:43.272Z,11.38
2022-10-21T10:01:46.409Z,11.13
2022-10-21T10:02:49.602Z,10.95
2022-10-21T10:03:53.008Z,12.73
2022-10-21T10:04:55.025Z,7.35
2022-10-21T10:05:57.339Z,11.32
2022-10-21T10:07:02.749Z,17.08
2022-10-21T10:08:36.577Z,7.63
2022-10-21T10:09:45.910Z,7.70
2022-10-21T10:10:49.872Z,4.88
2022-10-21T10:12:00.842Z,7.18
2022-10-21T10:13:02.684Z,7.38
2022-10-21T10:14:24.966Z,8.27
2022-10-21T10:15:37.582Z,5.10
2022-10-21T10:16:39.724Z,5.47
2022-10-21T10:17:41.743Z,5.60
2022-10-21T10:18:44.312Z,7.50
2022-10-21T10:20:04.373Z,6.40
2022-10-21T10:21:11.160Z,6.20
2022-10-21T10:22:15.547Z,8.15
2022-10-21T10:23:19.556Z,9.05
2022-10-21T10:24:23.598Z,10.40
2022-10-21T10:25:33.613Z,7.28
2022-10-21T10:26:42.777Z,6.97
2022-10-21T10:28:15.799Z,11.50
2022-10-21T10:29:26.632Z,10.20
2022-10-21T10:30:38.019Z,7.40
2022-10-21T10:31:45.530Z,8.38
2022-10-21T10:32:49.605Z,4.82
2022-10-21T10:33:58.853Z,6.40
2022-10-21T10:35:04.426Z,12.07
2022-10-21T10:36:09.527Z,14.73
2022-10-21T10:37:24.519Z,9.40
2022-10-21T10:38:41.272Z,6.07
2022-10-21T10:39:46.623Z,6.38
2022-10-21T10:40:49.914Z,10.55
2022-10-21T10:41:53.065Z,7.40
2022-10-21T10:43:06.102Z,9.27
2022-10-21T10:44:33.911Z,4.90
2022-10-21T10:45:36.007Z,8.75
2022-10-21T10:46:39.502Z,7.95
2022-10-21T10:47:53.889Z,6.35
2022-10-21T10:48:58.902Z,8.82
2022-10-21T10:50:01.123Z,7.93
2022-10-21T10:51:08.238Z,7.63
2022-10-21T10:52:10.216Z,7.82
2022-10-21T10:53:37.076Z,7.40
2022-10-21T10:54:40.517Z,7.63
2022-10-21T10:55:45.126Z,12.65
2022-10-21T10:56:55.243Z,13.27
2022-10-21T10:58:19.106Z,10.50
2022-10-21T10:59:47.782Z,11.68
2022-10-21T11:00:53.764Z,9.65
2022-10-21T11:02:10.640Z,8.27
2022-10-21T11:03:20.162Z,9.07
2022-10-21T11:04:37.783Z,12.52
2022-10-21T11:05:44.568Z,10.65
2022-10-21T11:06:58.165Z,11.02
2022-10-21T11:08:10.670Z,11.73
2022-10-21T11:09:13.068Z,12.00
2022-10-21T11:10:23.933Z,13.32
2022-10-21T11:11:40.124Z,13.57
2022-10-21T11:12:42.106Z,14.77
2022-10-21T11:13:44.238Z,21.15
2022-10-21T11:14:58.555Z,12.70
2022-10-21T11:16:00.303Z,10.35
2022-10-21T11:17:22.508Z,10.48
2022-10-21T11:18:41.001Z,11.45
2022-10-21T11:20:07.202Z,8.23
2022-10-21T11:21:21.011Z,9.80
2022-10-21T11:22:34.797Z,7.93
2022-10-21T11:23:48.499Z,11.77
2022-10-21T11:25:23.402Z,9.18
2022-10-21T11:26:57.434Z,7.78
2022-10-21T11:28:16.763Z,12.55
2022-10-21T11:29:44.843Z,10.90
2022-10-21T11:31:25.201Z,7.30
2022-10-21T11:32:42.073Z,18.35
2022-10-21T11:34:21.397Z,17.38
2022-10-21T11:35:37.565Z,6.13
2022-10-21T11:37:14.255Z,7.60
2022-10-21T11:38:39.300Z,10.18
2022-10-21T11:39:48.083Z,9.80
2022-10-21T11:40:58.206Z,7.22
2022-10-21T11:42:07.649Z,8.77
2022-10-21T11:43:18.967Z,10.00
2022-10-21T11:45:49.726Z,12.10
2022-10-21T11:47:11.676Z,8.50
2022-10-21T11:48:31.853Z,8.18
2022-10-21T11:49:43.381Z,8.32
2022-10-21T11:51:05.291Z,9.02
2022-10-21T11:52:38.370Z,9.23
2022-10-21T11:54:10.357Z,14.55
2022-10-21T11:56:33.353Z,10.10
2022-10-21T11:58:04.453Z,13.00
2022-10-21T11:59:51.635Z,15.75
2022-10-21T12:01:17.020Z,10.13
2022-10-21T12:02:44.814Z,16.48
2022-10-21T12:03:58.693Z,7.47
2022-10-21T12:05:15.472Z,9.15
2022-10-21T12:06:38.739Z,9.45
2022-10-21T12:07:46.485Z,13.05
2022-10-21T12:09:02.933Z,11.52
2022-10-21T12:10:12.340Z,7.20
2022-10-21T12:11:19.384Z,8.60
2022-10-21T12:12:31.764Z,14.65
2022-10-21T12:13:44.741Z,13.20
2022-10-21T12:14:58.441Z,15.85
2022-10-21T12:16:06.401Z,20.00
2022-10-21T12:17:13.739Z,18.63
2022-10-21T12:18:22.399Z,12.30
2022-10-21T12:19:26.269Z,9.60
2022-10-21T12:20:28.675Z,9.98
2022-10-21T12:21:35.663Z,6.63
2022-10-21T12:22:39.299Z,5.60
2022-10-21T12:23:42.002Z,4.40
2022-10-21T12:24:55.164Z,5.80
2022-10-21T12:26:25.169Z,9.98
2022-10-21T12:27:38.590Z,6.45
2022-10-21T12:29:06.558Z,12.30
2022-10-21T12:30:24.972Z,8.30
2022-10-21T12:32:04.282Z,8.45
2022-10-21T12:33:15.953Z,6.50
2022-10-21T12:34:17.846Z,9.07
2022-10-21T12:35:47.607Z,6.88
2022-10-21T12:36:51.161Z,9.95
2022-10-21T12:37:52.926Z,9.85
2022-10-21T12:38:59.001Z,11.18
2022-10-21T12:40:30.461Z,8.93
2022-10-21T12:41:34.673Z,11.00
2022-10-21T12:42:36.827Z,11.45
2022-10-21T12:43:39.578Z,6.05
2022-10-21T12:44:49.900Z,12.43
2022-10-21T12:46:09.494Z,6.53
2022-10-21T12:47:34.973Z,10.25
2022-10-21T12:48:43.041Z,14.50
2022-10-21T12:49:44.871Z,8.70
2022-10-21T12:50:58.247Z,6.95
2022-10-21T12:52:02.881Z,8.07
2022-10-21T12:53:22.430Z,11.50
2022-10-21T12:54:30.404Z,10.18
2022-10-21T12:55:40.458Z,10.85
2022-10-21T12:57:02.830Z,7.85
2022-10-21T12:58:07.023Z,8.15
2022-10-21T12:59:35.532Z,9.60
2022-10-21T13:00:43.586Z,7.43
2022-10-21T13:02:08.089Z,8.65
2022-10-21T13:03:14.063Z,8.23
2022-10-21T13:04:45.326Z,10.10
2022-10-21T13:05:47.271Z,7.57
2022-10-21T13:06:51.689Z,8.05
2022-10-21T13:08:24.245Z,8.75
2022-10-21T13:09:37.921Z,11.10
2022-10-21T13:10:40.167Z,10.65
2022-10-21T13:11:42.414Z,8.05
2022-10-21T13:12:46.699Z,9.63
2022-10-21T13:14:08.816Z,9.77
2022-10-21T13:15:23.173Z,7.75
2022-10-21T13:16:35.822Z,9.23
2022-10-21T13:17:51.184Z,7.10
2022-10-21T13:18:59.846Z,7.90
2022-10-21T13:20:20.303Z,6.47
2022-10-21T13:21:29.783Z,7.13
2022-10-21T13:22:37.426Z,5.10
2022-10-21T13:23:43.291Z,6.30
2022-10-21T13:24:46.458Z,8.23
2022-10-21T13:26:18.733Z,7.57
2022-10-21T13:28:36.508Z,5.55
2022-10-21T13:29:38.267Z,6.03
2022-10-21T13:30:58.573Z,7.55
2022-10-21T13:32:23.476Z,6.90
2022-10-21T13:33:38.866Z,6.03
2022-10-21T13:34:54.114Z,5.63
2022-10-21T13:36:09.777Z,7.85
2022-10-21T13:37:16.935Z,11.80
2022-10-21T13:38:27.549Z,9.13
2022-10-21T13:39:33.462Z,7.85
2022-10-21T13:40:47.526Z,8.13
2022-10-21T13:42:08.303Z,8.52
2022-10-21T13:43:29.108Z,10.02
2022-10-21T13:44:35.958Z,7.45
2022-10-21T13:45:51.622Z,8.35
2022-10-21T13:46:53.441Z,10.02
2022-10-21T13:48:11.719Z,11.98
2022-10-21T13:49:31.404Z,10.10
2022-10-21T13:50:38.849Z,8.15
2022-10-21T13:51:46.960Z,9.73
2022-10-21T13:52:48.951Z,8.05
2022-10-21T13:53:55.331Z,8.05
2022-10-21T13:54:59.426Z,8.15
2022-10-21T13:56:04.998Z,9.13
2022-10-21T13:57:08.521Z,7.60
2022-10-21T13:58:16.640Z,6.70
2022-10-21T13:59:26.364Z,11.07
2022-10-21T14:00:32.320Z,10.43
2022-10-21T14:01:49.776Z,9.05
2022-10-21T14:03:05.873Z,6.75
2022-10-21T14:04:22.389Z,8.95
2022-10-21T14:05:59.215Z,7.05
2022-10-21T14:07:08.300Z,6.60
2022-10-21T14:08:32.053Z,10.43
2022-10-21T14:09:39.460Z,10.25
2022-10-21T14:10:46.761Z,7.32
2022-10-21T14:11:53.019Z,7.07
2022-10-21T14:14:06.279Z,8.32
2022-10-21T14:15:19.256Z,8.20
2022-10-21T14:16:42.391Z,6.40
2022-10-21T14:17:50.432Z,8.00
2022-10-21T14:18:54.062Z,9.55
2022-10-21T14:20:05.256Z,9.18
2022-10-21T14:22:19.733Z,13.70
2022-10-21T14:24:48.798Z,15.90
2022-10-21T14:25:53.184Z,13.23
2022-10-21T14:26:56.856Z,15.73
2022-10-21T14:28:00.222Z,14.88
2022-10-21T14:29:04.522Z,14.93
2022-10-21T14:30:10.289Z,20.30
2022-10-21T14:31:13.762Z,18.25
2022-10-21T14:32:18.211Z,15.75
2022-10-21T14:33:25.273Z,14.30
2022-10-21T14:34:30.438Z,12.35
2022-10-21T14:35:32.470Z,16.27
2022-10-21T14:36:34.708Z,13.10
2022-10-21T14:37:43.786Z,16.40
2022-10-21T14:38:52.865Z,16.58
2022-10-21T14:40:21.205Z,12.45
2022-10-21T14:41:31.801Z,16.88
2022-10-21T14:42:33.836Z,12.65
2022-10-21T14:43:42.399Z,11.32
2022-10-21T14:44:48.966Z,11.95
2022-10-21T14:45:54.480Z,17.67
2022-10-21T14:46:56.426Z,15.63
2022-10-21T14:48:16.016Z,21.25
2022-10-21T14:49:26.032Z,19.40
2022-10-21T14:50:28.215Z,19.50
2022-10-21T14:51:37.472Z,17.85
2022-10-21T14:52:43.026Z,18.63
2022-10-21T14:53:51.220Z,18.92
2022-10-21T14:55:07.322Z,18.98
2022-10-21T14:56:16.917Z,21.55
2022-10-21T14:57:28.195Z,19.42
2022-10-21T14:59:42.744Z,15.30
2022-10-21T15:00:44.562Z,20.83
2022-10-21T15:01:46.727Z,19.77
2022-10-21T15:02:49.741Z,19.95